sensor_id;sensor_type;location;lat;lon;timestamp;P1;durP1;ratioP1;P2;durP2;ratioP2
82000;SDS011;71510;50.558;7.258;2023-08-21T00:01:58;20.10;;;18.17;;
82000;SDS011;71510;50.558;7.258;2023-08-21T00:04:25;18.52;;;16.70;;
82000;SDS011;71510;50.558;7.258;2023-08-21T00:06:53;18.85;;;17.15;;
82000;SDS011;71510;50.558;7.258;2023-08-21T00:09:20;20.10;;;17.85;;
82000;SDS011;71510;50.558;7.258;2023-08-21T00:11:47;20.08;;;17.65;;
82000;SDS011;71510;50.558;7.258;2023-08-21T00:14:15;19.62;;;17.52;;
82000;SDS011;71510;50.558;7.258;2023-08-21T00:16:42;19.12;;;17.23;;
82000;SDS011;71510;50.558;7.258;2023-08-21T00:19:09;18.27;;;16.73;;
82000;SDS011;71510;50.558;7.258;2023-08-21T00:21:36;19.45;;;17.32;;
82000;SDS011;71510;50.558;7.258;2023-08-21T00:24:04;20.25;;;18.05;;
82000;SDS011;71510;50.558;7.258;2023-08-21T00:26:31;21.45;;;17.50;;
82000;SDS011;71510;50.558;7.258;2023-08-21T00:28:59;20.40;;;18.45;;
82000;SDS011;71510;50.558;7.258;2023-08-21T00:31:26;21.27;;;19.37;;
82000;SDS011;71510;50.558;7.258;2023-08-21T00:33:53;23.02;;;19.02;;
82000;SDS011;71510;50.558;7.258;2023-08-21T00:36:21;22.32;;;20.15;;
82000;SDS011;71510;50.558;7.258;2023-08-21T00:38:48;22.65;;;18.75;;
82000;SDS011;71510;50.558;7.258;2023-08-21T00:41:15;18.45;;;16.62;;
82000;SDS011;71510;50.558;7.258;2023-08-21T00:43:42;23.02;;;18.70;;
82000;SDS011;71510;50.558;7.258;2023-08-21T00:46:10;20.40;;;18.50;;
82000;SDS011;71510;50.558;7.258;2023-08-21T00:48:37;19.90;;;17.05;;
82000;SDS011;71510;50.558;7.258;2023-08-21T00:51:05;20.37;;;18.20;;
82000;SDS011;71510;50.558;7.258;2023-08-21T00:53:33;20.37;;;17.75;;
82000;SDS011;71510;50.558;7.258;2023-08-21T00:56:01;20.00;;;18.25;;
82000;SDS011;71510;50.558;7.258;2023-08-21T00:58:29;19.27;;;17.25;;
82000;SDS011;71510;50.558;7.258;2023-08-21T01:00:56;21.20;;;18.90;;
82000;SDS011;71510;50.558;7.258;2023-08-21T01:03:24;23.32;;;21.20;;
82000;SDS011;71510;50.558;7.258;2023-08-21T01:05:51;23.10;;;20.80;;
82000;SDS011;71510;50.558;7.258;2023-08-21T01:08:30;21.52;;;19.40;;
82000;SDS011;71510;50.558;7.258;2023-08-21T01:13:47;23.75;;;19.23;;
82000;SDS011;71510;50.558;7.258;2023-08-21T01:16:13;22.30;;;20.08;;
82000;SDS011;71510;50.558;7.258;2023-08-21T01:18:40;23.07;;;20.80;;
82000;SDS011;71510;50.558;7.258;2023-08-21T01:21:09;23.65;;;21.52;;
82000;SDS011;71510;50.558;7.258;2023-08-21T01:23:37;22.32;;;20.10;;
82000;SDS011;71510;50.558;7.258;2023-08-21T01:26:04;22.35;;;20.05;;
82000;SDS011;71510;50.558;7.258;2023-08-21T01:28:32;22.85;;;20.35;;
82000;SDS011;71510;50.558;7.258;2023-08-21T01:31:22;24.30;;;21.80;;
82000;SDS011;71510;50.558;7.258;2023-08-21T01:33:29;30.40;;;21.30;;
82000;SDS011;71510;50.558;7.258;2023-08-21T01:35:58;23.50;;;21.10;;
82000;SDS011;71510;50.558;7.258;2023-08-21T01:38:25;25.15;;;22.93;;
82000;SDS011;71510;50.558;7.258;2023-08-21T01:40:53;24.43;;;22.05;;
82000;SDS011;71510;50.558;7.258;2023-08-21T01:43:20;27.20;;;24.57;;
82000;SDS011;71510;50.558;7.258;2023-08-21T01:45:47;25.23;;;22.62;;
82000;SDS011;71510;50.558;7.258;2023-08-21T01:48:15;23.55;;;21.10;;
82000;SDS011;71510;50.558;7.258;2023-08-21T01:50:42;23.27;;;20.90;;
82000;SDS011;71510;50.558;7.258;2023-08-21T01:53:09;26.52;;;23.98;;
82000;SDS011;71510;50.558;7.258;2023-08-21T01:55:37;23.70;;;21.25;;
82000;SDS011;71510;50.558;7.258;2023-08-21T01:58:04;24.18;;;21.62;;
82000;SDS011;71510;50.558;7.258;2023-08-21T02:00:31;27.48;;;21.70;;
82000;SDS011;71510;50.558;7.258;2023-08-21T02:02:58;24.02;;;21.73;;
82000;SDS011;71510;50.558;7.258;2023-08-21T02:05:26;25.57;;;23.00;;
82000;SDS011;71510;50.558;7.258;2023-08-21T02:07:53;25.88;;;23.57;;
82000;SDS011;71510;50.558;7.258;2023-08-21T02:10:20;26.57;;;23.87;;
82000;SDS011;71510;50.558;7.258;2023-08-21T02:12:48;27.55;;;25.05;;
82000;SDS011;71510;50.558;7.258;2023-08-21T02:15:16;24.10;;;21.85;;
82000;SDS011;71510;50.558;7.258;2023-08-21T02:17:43;25.57;;;23.12;;
82000;SDS011;71510;50.558;7.258;2023-08-21T02:20:10;26.33;;;23.92;;
82000;SDS011;71510;50.558;7.258;2023-08-21T02:22:38;24.72;;;22.62;;
82000;SDS011;71510;50.558;7.258;2023-08-21T02:25:05;27.82;;;25.12;;
82000;SDS011;71510;50.558;7.258;2023-08-21T02:27:32;27.65;;;24.85;;
82000;SDS011;71510;50.558;7.258;2023-08-21T02:30:00;26.73;;;23.98;;
82000;SDS011;71510;50.558;7.258;2023-08-21T02:32:27;26.90;;;24.40;;
82000;SDS011;71510;50.558;7.258;2023-08-21T02:34:55;27.20;;;24.23;;
82000;SDS011;71510;50.558;7.258;2023-08-21T02:37:22;27.27;;;23.83;;
82000;SDS011;71510;50.558;7.258;2023-08-21T02:39:49;24.63;;;22.15;;
82000;SDS011;71510;50.558;7.258;2023-08-21T02:42:17;28.32;;;21.95;;
82000;SDS011;71510;50.558;7.258;2023-08-21T02:44:44;25.17;;;22.85;;
82000;SDS011;71510;50.558;7.258;2023-08-21T02:47:13;25.62;;;22.93;;
82000;SDS011;71510;50.558;7.258;2023-08-21T02:49:40;25.30;;;22.77;;
82000;SDS011;71510;50.558;7.258;2023-08-21T02:52:07;26.25;;;23.95;;
82000;SDS011;71510;50.558;7.258;2023-08-21T02:54:35;23.45;;;21.35;;
82000;SDS011;71510;50.558;7.258;2023-08-21T02:57:02;25.10;;;22.48;;
82000;SDS011;71510;50.558;7.258;2023-08-21T02:59:29;25.17;;;22.67;;
82000;SDS011;71510;50.558;7.258;2023-08-21T03:01:57;26.52;;;23.45;;
82000;SDS011;71510;50.558;7.258;2023-08-21T03:04:24;29.70;;;23.83;;
82000;SDS011;71510;50.558;7.258;2023-08-21T03:06:51;26.45;;;23.95;;
82000;SDS011;71510;50.558;7.258;2023-08-21T03:09:19;27.73;;;24.63;;
82000;SDS011;71510;50.558;7.258;2023-08-21T03:11:46;26.23;;;23.73;;
82000;SDS011;71510;50.558;7.258;2023-08-21T03:14:13;25.92;;;23.62;;
82000;SDS011;71510;50.558;7.258;2023-08-21T03:16:40;27.07;;;23.90;;
82000;SDS011;71510;50.558;7.258;2023-08-21T03:19:08;27.62;;;24.92;;
82000;SDS011;71510;50.558;7.258;2023-08-21T03:21:35;26.57;;;23.77;;
82000;SDS011;71510;50.558;7.258;2023-08-21T03:24:02;27.95;;;23.75;;
82000;SDS011;71510;50.558;7.258;2023-08-21T03:26:30;24.55;;;22.32;;
82000;SDS011;71510;50.558;7.258;2023-08-21T03:28:57;25.27;;;22.93;;
82000;SDS011;71510;50.558;7.258;2023-08-21T03:31:24;25.77;;;23.38;;
82000;SDS011;71510;50.558;7.258;2023-08-21T03:33:52;24.98;;;22.58;;
82000;SDS011;71510;50.558;7.258;2023-08-21T03:36:19;26.68;;;23.87;;
82000;SDS011;71510;50.558;7.258;2023-08-21T03:38:46;26.73;;;24.27;;
82000;SDS011;71510;50.558;7.258;2023-08-21T03:41:14;28.65;;;25.77;;
82000;SDS011;71510;50.558;7.258;2023-08-21T03:43:42;27.55;;;24.52;;
82000;SDS011;71510;50.558;7.258;2023-08-21T03:46:09;27.52;;;24.82;;
82000;SDS011;71510;50.558;7.258;2023-08-21T03:48:36;28.73;;;24.30;;
82000;SDS011;71510;50.558;7.258;2023-08-21T03:51:04;24.23;;;22.13;;
82000;SDS011;71510;50.558;7.258;2023-08-21T03:53:31;25.37;;;22.75;;
82000;SDS011;71510;50.558;7.258;2023-08-21T03:55:58;25.90;;;23.30;;
82000;SDS011;71510;50.558;7.258;2023-08-21T03:58:26;29.57;;;26.23;;
82000;SDS011;71510;50.558;7.258;2023-08-21T04:00:53;25.12;;;22.82;;
82000;SDS011;71510;50.558;7.258;2023-08-21T04:03:21;24.92;;;22.55;;
82000;SDS011;71510;50.558;7.258;2023-08-21T04:05:48;26.75;;;24.30;;
82000;SDS011;71510;50.558;7.258;2023-08-21T04:08:15;26.02;;;23.60;;
82000;SDS011;71510;50.558;7.258;2023-08-21T04:10:43;27.27;;;24.47;;
82000;SDS011;71510;50.558;7.258;2023-08-21T04:13:10;28.23;;;25.37;;
82000;SDS011;71510;50.558;7.258;2023-08-21T04:15:37;26.77;;;24.27;;
82000;SDS011;71510;50.558;7.258;2023-08-21T04:18:04;29.27;;;26.33;;
82000;SDS011;71510;50.558;7.258;2023-08-21T04:20:32;26.60;;;23.65;;
82000;SDS011;71510;50.558;7.258;2023-08-21T04:22:59;30.70;;;26.17;;
82000;SDS011;71510;50.558;7.258;2023-08-21T04:25:26;28.98;;;24.00;;
82000;SDS011;71510;50.558;7.258;2023-08-21T04:27:54;24.87;;;21.80;;
82000;SDS011;71510;50.558;7.258;2023-08-21T04:30:21;27.40;;;24.43;;
82000;SDS011;71510;50.558;7.258;2023-08-21T04:32:49;26.23;;;23.35;;
82000;SDS011;71510;50.558;7.258;2023-08-21T04:35:16;28.35;;;23.85;;
82000;SDS011;71510;50.558;7.258;2023-08-21T04:37:45;34.05;;;26.77;;
82000;SDS011;71510;50.558;7.258;2023-08-21T04:40:12;27.55;;;24.05;;
82000;SDS011;71510;50.558;7.258;2023-08-21T04:42:40;31.62;;;25.88;;
82000;SDS011;71510;50.558;7.258;2023-08-21T04:45:07;29.60;;;26.07;;
82000;SDS011;71510;50.558;7.258;2023-08-21T04:47:35;31.75;;;24.92;;
82000;SDS011;71510;50.558;7.258;2023-08-21T04:50:03;27.95;;;25.15;;
82000;SDS011;71510;50.558;7.258;2023-08-21T04:52:30;30.50;;;26.55;;
82000;SDS011;71510;50.558;7.258;2023-08-21T04:54:57;29.60;;;26.50;;
82000;SDS011;71510;50.558;7.258;2023-08-21T04:57:25;29.00;;;25.90;;
82000;SDS011;71510;50.558;7.258;2023-08-21T04:59:52;28.50;;;25.40;;
82000;SDS011;71510;50.558;7.258;2023-08-21T05:02:19;28.20;;;25.30;;
82000;SDS011;71510;50.558;7.258;2023-08-21T05:04:47;27.02;;;24.27;;
82000;SDS011;71510;50.558;7.258;2023-08-21T05:07:14;33.60;;;25.82;;
82000;SDS011;71510;50.558;7.258;2023-08-21T05:09:42;28.77;;;23.65;;
82000;SDS011;71510;50.558;7.258;2023-08-21T05:12:09;27.50;;;22.90;;
82000;SDS011;71510;50.558;7.258;2023-08-21T05:14:36;26.87;;;23.57;;
82000;SDS011;71510;50.558;7.258;2023-08-21T05:17:04;26.97;;;24.43;;
82000;SDS011;71510;50.558;7.258;2023-08-21T05:19:31;29.87;;;22.40;;
82000;SDS011;71510;50.558;7.258;2023-08-21T05:21:58;24.87;;;21.77;;
82000;SDS011;71510;50.558;7.258;2023-08-21T05:24:25;27.22;;;21.87;;
82000;SDS011;71510;50.558;7.258;2023-08-21T05:26:53;23.65;;;21.52;;
82000;SDS011;71510;50.558;7.258;2023-08-21T05:29:20;23.52;;;20.85;;
82000;SDS011;71510;50.558;7.258;2023-08-21T05:31:47;24.00;;;21.73;;
82000;SDS011;71510;50.558;7.258;2023-08-21T05:34:15;34.15;;;22.80;;
82000;SDS011;71510;50.558;7.258;2023-08-21T05:36:42;28.15;;;20.08;;
82000;SDS011;71510;50.558;7.258;2023-08-21T05:39:09;23.57;;;21.40;;
82000;SDS011;71510;50.558;7.258;2023-08-21T05:41:37;24.32;;;21.85;;
82000;SDS011;71510;50.558;7.258;2023-08-21T05:44:04;24.60;;;19.50;;
82000;SDS011;71510;50.558;7.258;2023-08-21T05:46:31;21.10;;;18.30;;
82000;SDS011;71510;50.558;7.258;2023-08-21T05:48:58;21.37;;;19.27;;
82000;SDS011;71510;50.558;7.258;2023-08-21T05:51:26;23.73;;;19.32;;
82000;SDS011;71510;50.558;7.258;2023-08-21T05:53:53;19.60;;;17.60;;
82000;SDS011;71510;50.558;7.258;2023-08-21T05:56:21;20.82;;;18.50;;
82000;SDS011;71510;50.558;7.258;2023-08-21T05:58:49;20.95;;;18.57;;
82000;SDS011;71510;50.558;7.258;2023-08-21T06:01:16;21.73;;;19.40;;
82000;SDS011;71510;50.558;7.258;2023-08-21T06:03:43;20.40;;;17.70;;
82000;SDS011;71510;50.558;7.258;2023-08-21T06:06:11;27.07;;;18.57;;
82000;SDS011;71510;50.558;7.258;2023-08-21T06:08:38;20.75;;;18.25;;
82000;SDS011;71510;50.558;7.258;2023-08-21T06:11:05;24.90;;;17.57;;
82000;SDS011;71510;50.558;7.258;2023-08-21T06:13:33;24.47;;;18.37;;
82000;SDS011;71510;50.558;7.258;2023-08-21T06:16:00;22.42;;;17.27;;
82000;SDS011;71510;50.558;7.258;2023-08-21T06:18:27;19.60;;;17.65;;
82000;SDS011;71510;50.558;7.258;2023-08-21T06:20:55;26.87;;;17.20;;
82000;SDS011;71510;50.558;7.258;2023-08-21T06:23:22;26.00;;;17.95;;
82000;SDS011;71510;50.558;7.258;2023-08-21T06:25:49;33.28;;;18.45;;
82000;SDS011;71510;50.558;7.258;2023-08-21T06:28:17;39.33;;;19.10;;
82000;SDS011;71510;50.558;7.258;2023-08-21T06:30:44;61.25;;;21.60;;
82000;SDS011;71510;50.558;7.258;2023-08-21T06:33:11;144.57;;;29.45;;
82000;SDS011;71510;50.558;7.258;2023-08-21T06:35:38;56.48;;;21.57;;
82000;SDS011;71510;50.558;7.258;2023-08-21T06:38:06;29.37;;;18.75;;
82000;SDS011;71510;50.558;7.258;2023-08-21T06:40:33;20.55;;;17.25;;
82000;SDS011;71510;50.558;7.258;2023-08-21T06:43:00;26.17;;;17.80;;
82000;SDS011;71510;50.558;7.258;2023-08-21T06:45:29;22.62;;;18.60;;
82000;SDS011;71510;50.558;7.258;2023-08-21T06:47:58;26.42;;;16.85;;
82000;SDS011;71510;50.558;7.258;2023-08-21T06:50:25;22.73;;;17.27;;
82000;SDS011;71510;50.558;7.258;2023-08-21T06:52:53;25.80;;;17.77;;
82000;SDS011;71510;50.558;7.258;2023-08-21T06:55:20;19.00;;;17.12;;
82000;SDS011;71510;50.558;7.258;2023-08-21T06:57:47;19.17;;;16.95;;
82000;SDS011;71510;50.558;7.258;2023-08-21T07:00:15;19.45;;;17.32;;
82000;SDS011;71510;50.558;7.258;2023-08-21T07:02:42;21.42;;;17.90;;
82000;SDS011;71510;50.558;7.258;2023-08-21T07:05:09;20.45;;;17.57;;
82000;SDS011;71510;50.558;7.258;2023-08-21T07:07:37;33.08;;;17.70;;
82000;SDS011;71510;50.558;7.258;2023-08-21T07:10:04;32.75;;;18.27;;
82000;SDS011;71510;50.558;7.258;2023-08-21T07:12:31;19.15;;;15.70;;
82000;SDS011;71510;50.558;7.258;2023-08-21T07:14:59;19.73;;;16.10;;
82000;SDS011;71510;50.558;7.258;2023-08-21T07:17:26;19.35;;;16.25;;
82000;SDS011;71510;50.558;7.258;2023-08-21T07:19:53;17.73;;;14.80;;
82000;SDS011;71510;50.558;7.258;2023-08-21T07:22:20;31.23;;;15.90;;
82000;SDS011;71510;50.558;7.258;2023-08-21T07:24:48;18.05;;;16.23;;
82000;SDS011;71510;50.558;7.258;2023-08-21T07:27:15;19.77;;;15.72;;
82000;SDS011;71510;50.558;7.258;2023-08-21T07:29:42;17.12;;;15.35;;
82000;SDS011;71510;50.558;7.258;2023-08-21T07:32:10;33.08;;;16.42;;
82000;SDS011;71510;50.558;7.258;2023-08-21T07:34:37;27.80;;;15.18;;
82000;SDS011;71510;50.558;7.258;2023-08-21T07:37:04;22.25;;;15.83;;
82000;SDS011;71510;50.558;7.258;2023-08-21T07:39:33;16.65;;;14.98;;
82000;SDS011;71510;50.558;7.258;2023-08-21T07:42:00;20.10;;;14.50;;
82000;SDS011;71510;50.558;7.258;2023-08-21T07:44:28;17.02;;;14.73;;
82000;SDS011;71510;50.558;7.258;2023-08-21T07:46:55;15.78;;;13.90;;
82000;SDS011;71510;50.558;7.258;2023-08-21T07:49:22;16.75;;;13.20;;
82000;SDS011;71510;50.558;7.258;2023-08-21T07:51:50;12.98;;;11.68;;
82000;SDS011;71510;50.558;7.258;2023-08-21T07:54:17;14.23;;;10.95;;
82000;SDS011;71510;50.558;7.258;2023-08-21T07:56:44;12.30;;;11.08;;
82000;SDS011;71510;50.558;7.258;2023-08-21T07:59:12;17.45;;;11.70;;
82000;SDS011;71510;50.558;7.258;2023-08-21T08:01:39;47.40;;;13.15;;
82000;SDS011;71510;50.558;7.258;2023-08-21T08:04:06;30.10;;;12.50;;
82000;SDS011;71510;50.558;7.258;2023-08-21T08:06:34;18.70;;;10.82;;
82000;SDS011;71510;50.558;7.258;2023-08-21T08:09:01;13.95;;;11.68;;
82000;SDS011;71510;50.558;7.258;2023-08-21T08:11:30;43.38;;;12.33;;
82000;SDS011;71510;50.558;7.258;2023-08-21T08:13:57;24.65;;;11.65;;
82000;SDS011;71510;50.558;7.258;2023-08-21T08:16:24;27.17;;;11.38;;
82000;SDS011;71510;50.558;7.258;2023-08-21T08:18:52;11.22;;;10.20;;
82000;SDS011;71510;50.558;7.258;2023-08-21T08:21:19;14.13;;;10.58;;
82000;SDS011;71510;50.558;7.258;2023-08-21T08:23:46;94.55;;;16.90;;
82000;SDS011;71510;50.558;7.258;2023-08-21T08:26:14;19.87;;;11.60;;
82000;SDS011;71510;50.558;7.258;2023-08-21T08:28:41;16.57;;;12.60;;
82000;SDS011;71510;50.558;7.258;2023-08-21T08:31:18;18.92;;;10.82;;
82000;SDS011;71510;50.558;7.258;2023-08-21T08:33:39;30.05;;;12.13;;
82000;SDS011;71510;50.558;7.258;2023-08-21T08:36:06;25.90;;;11.10;;
82000;SDS011;71510;50.558;7.258;2023-08-21T08:38:33;21.52;;;10.25;;
82000;SDS011;71510;50.558;7.258;2023-08-21T08:41:02;16.87;;;10.98;;
82000;SDS011;71510;50.558;7.258;2023-08-21T08:43:29;11.22;;;10.10;;
82000;SDS011;71510;50.558;7.258;2023-08-21T08:45:57;18.57;;;11.35;;
82000;SDS011;71510;50.558;7.258;2023-08-21T08:48:26;19.75;;;11.97;;
82000;SDS011;71510;50.558;7.258;2023-08-21T08:50:53;11.53;;;10.32;;
82000;SDS011;71510;50.558;7.258;2023-08-21T08:53:21;10.90;;;9.83;;
82000;SDS011;71510;50.558;7.258;2023-08-21T08:55:48;16.75;;;9.90;;
82000;SDS011;71510;50.558;7.258;2023-08-21T08:58:16;13.25;;;10.60;;
82000;SDS011;71510;50.558;7.258;2023-08-21T09:00:43;19.98;;;10.82;;
82000;SDS011;71510;50.558;7.258;2023-08-21T09:03:10;20.92;;;10.53;;
82000;SDS011;71510;50.558;7.258;2023-08-21T09:05:39;22.75;;;10.05;;
82000;SDS011;71510;50.558;7.258;2023-08-21T09:08:10;10.20;;;9.05;;
82000;SDS011;71510;50.558;7.258;2023-08-21T09:10:38;21.07;;;10.03;;
82000;SDS011;71510;50.558;7.258;2023-08-21T09:13:16;27.05;;;10.45;;
82000;SDS011;71510;50.558;7.258;2023-08-21T09:15:46;51.85;;;13.20;;
82000;SDS011;71510;50.558;7.258;2023-08-21T09:18:11;21.62;;;9.75;;
82000;SDS011;71510;50.558;7.258;2023-08-21T09:20:38;22.60;;;10.35;;
82000;SDS011;71510;50.558;7.258;2023-08-21T09:23:06;11.05;;;9.28;;
82000;SDS011;71510;50.558;7.258;2023-08-21T09:25:41;12.20;;;8.38;;
82000;SDS011;71510;50.558;7.258;2023-08-21T09:28:05;10.95;;;8.08;;
82000;SDS011;71510;50.558;7.258;2023-08-21T09:33:22;13.62;;;9.08;;
82000;SDS011;71510;50.558;7.258;2023-08-21T09:35:45;42.60;;;11.90;;
82000;SDS011;71510;50.558;7.258;2023-08-21T09:38:13;118.97;;;18.75;;
82000;SDS011;71510;50.558;7.258;2023-08-21T09:40:54;37.65;;;10.48;;
82000;SDS011;71510;50.558;7.258;2023-08-21T09:43:22;10.45;;;8.35;;
82000;SDS011;71510;50.558;7.258;2023-08-21T09:45:51;9.28;;;8.45;;
82000;SDS011;71510;50.558;7.258;2023-08-21T09:48:24;10.30;;;7.78;;
82000;SDS011;71510;50.558;7.258;2023-08-21T09:50:55;11.85;;;7.40;;
82000;SDS011;71510;50.558;7.258;2023-08-21T09:53:23;8.75;;;7.72;;
82000;SDS011;71510;50.558;7.258;2023-08-21T09:55:57;12.10;;;8.40;;
82000;SDS011;71510;50.558;7.258;2023-08-21T09:58:20;14.23;;;8.78;;
82000;SDS011;71510;50.558;7.258;2023-08-21T10:00:48;8.95;;;8.03;;
82000;SDS011;71510;50.558;7.258;2023-08-21T10:03:18;8.88;;;7.97;;
82000;SDS011;71510;50.558;7.258;2023-08-21T10:05:44;8.78;;;7.97;;
82000;SDS011;71510;50.558;7.258;2023-08-21T10:08:12;10.08;;;8.15;;
82000;SDS011;71510;50.558;7.258;2023-08-21T10:10:40;8.55;;;7.72;;
82000;SDS011;71510;50.558;7.258;2023-08-21T10:13:07;9.43;;;8.48;;
82000;SDS011;71510;50.558;7.258;2023-08-21T10:15:36;13.55;;;7.87;;
82000;SDS011;71510;50.558;7.258;2023-08-21T10:18:23;22.85;;;8.63;;
82000;SDS011;71510;50.558;7.258;2023-08-21T10:20:51;11.78;;;8.08;;
82000;SDS011;71510;50.558;7.258;2023-08-21T10:23:28;15.83;;;9.08;;
82000;SDS011;71510;50.558;7.258;2023-08-21T10:26:00;10.58;;;8.18;;
82000;SDS011;71510;50.558;7.258;2023-08-21T10:28:43;10.10;;;7.30;;
82000;SDS011;71510;50.558;7.258;2023-08-21T10:31:27;24.72;;;8.40;;
82000;SDS011;71510;50.558;7.258;2023-08-21T10:33:55;9.65;;;7.80;;
82000;SDS011;71510;50.558;7.258;2023-08-21T10:36:38;8.20;;;7.20;;
82000;SDS011;71510;50.558;7.258;2023-08-21T10:39:15;7.55;;;6.40;;
82000;SDS011;71510;50.558;7.258;2023-08-21T10:41:59;10.15;;;6.80;;
82000;SDS011;71510;50.558;7.258;2023-08-21T10:50:02;37.60;;;8.83;;
82000;SDS011;71510;50.558;7.258;2023-08-21T10:54:55;12.28;;;6.72;;
82000;SDS011;71510;50.558;7.258;2023-08-21T10:57:23;9.00;;;6.45;;
82000;SDS011;71510;50.558;7.258;2023-08-21T10:59:55;7.87;;;6.15;;
82000;SDS011;71510;50.558;7.258;2023-08-21T11:02:23;11.75;;;6.47;;
82000;SDS011;71510;50.558;7.258;2023-08-21T11:04:52;79.00;;;14.70;;
82000;SDS011;71510;50.558;7.258;2023-08-21T11:07:19;43.63;;;8.58;;
82000;SDS011;71510;50.558;7.258;2023-08-21T11:09:47;20.27;;;7.50;;
82000;SDS011;71510;50.558;7.258;2023-08-21T11:12:16;9.13;;;6.90;;
82000;SDS011;71510;50.558;7.258;2023-08-21T11:14:44;11.40;;;6.08;;
82000;SDS011;71510;50.558;7.258;2023-08-21T11:17:11;12.78;;;6.35;;
82000;SDS011;71510;50.558;7.258;2023-08-21T11:19:39;19.27;;;6.58;;
82000;SDS011;71510;50.558;7.258;2023-08-21T11:22:07;72.03;;;11.48;;
82000;SDS011;71510;50.558;7.258;2023-08-21T11:27:09;19.85;;;6.65;;
82000;SDS011;71510;50.558;7.258;2023-08-21T11:29:43;9.13;;;5.78;;
82000;SDS011;71510;50.558;7.258;2023-08-21T11:32:15;12.65;;;6.15;;
82000;SDS011;71510;50.558;7.258;2023-08-21T11:34:43;10.90;;;5.37;;
82000;SDS011;71510;50.558;7.258;2023-08-21T11:37:11;8.13;;;5.22;;
82000;SDS011;71510;50.558;7.258;2023-08-21T11:39:42;8.58;;;6.95;;
82000;SDS011;71510;50.558;7.258;2023-08-21T11:42:10;36.75;;;7.03;;
82000;SDS011;71510;50.558;7.258;2023-08-21T11:45:12;12.88;;;5.87;;
82000;SDS011;71510;50.558;7.258;2023-08-21T11:47:13;8.30;;;6.03;;
82000;SDS011;71510;50.558;7.258;2023-08-21T11:49:41;15.45;;;6.05;;
82000;SDS011;71510;50.558;7.258;2023-08-21T11:52:09;19.65;;;7.78;;
82000;SDS011;71510;50.558;7.258;2023-08-21T11:54:37;7.05;;;5.65;;
82000;SDS011;71510;50.558;7.258;2023-08-21T11:57:12;8.13;;;5.57;;
82000;SDS011;71510;50.558;7.258;2023-08-21T11:59:38;22.48;;;7.58;;
82000;SDS011;71510;50.558;7.258;2023-08-21T12:02:24;42.65;;;8.25;;
82000;SDS011;71510;50.558;7.258;2023-08-21T12:04:37;21.93;;;5.83;;
82000;SDS011;71510;50.558;7.258;2023-08-21T12:07:04;7.47;;;5.30;;
82000;SDS011;71510;50.558;7.258;2023-08-21T12:09:31;6.50;;;5.53;;
82000;SDS011;71510;50.558;7.258;2023-08-21T12:11:59;14.53;;;6.83;;
82000;SDS011;71510;50.558;7.258;2023-08-21T12:14:27;7.17;;;6.10;;
82000;SDS011;71510;50.558;7.258;2023-08-21T12:16:55;52.00;;;9.90;;
82000;SDS011;71510;50.558;7.258;2023-08-21T12:19:22;30.02;;;7.58;;
82000;SDS011;71510;50.558;7.258;2023-08-21T12:21:50;45.33;;;8.95;;
82000;SDS011;71510;50.558;7.258;2023-08-21T12:24:18;9.83;;;4.75;;
82000;SDS011;71510;50.558;7.258;2023-08-21T12:26:45;9.25;;;6.25;;
82000;SDS011;71510;50.558;7.258;2023-08-21T12:29:12;11.75;;;5.80;;
82000;SDS011;71510;50.558;7.258;2023-08-21T12:31:40;13.10;;;6.50;;
82000;SDS011;71510;50.558;7.258;2023-08-21T12:34:07;6.70;;;5.60;;
82000;SDS011;71510;50.558;7.258;2023-08-21T12:36:35;47.17;;;8.28;;
82000;SDS011;71510;50.558;7.258;2023-08-21T12:39:04;16.70;;;6.05;;
82000;SDS011;71510;50.558;7.258;2023-08-21T12:41:32;12.73;;;5.62;;
82000;SDS011;71510;50.558;7.258;2023-08-21T12:44:00;13.48;;;5.58;;
82000;SDS011;71510;50.558;7.258;2023-08-21T12:46:29;16.77;;;5.50;;
82000;SDS011;71510;50.558;7.258;2023-08-21T12:48:57;8.78;;;5.45;;
82000;SDS011;71510;50.558;7.258;2023-08-21T12:51:25;10.70;;;5.30;;
82000;SDS011;71510;50.558;7.258;2023-08-21T12:53:53;9.80;;;4.90;;
82000;SDS011;71510;50.558;7.258;2023-08-21T12:56:20;8.90;;;5.22;;
82000;SDS011;71510;50.558;7.258;2023-08-21T12:58:47;110.42;;;16.42;;
82000;SDS011;71510;50.558;7.258;2023-08-21T13:01:15;11.33;;;5.22;;
82000;SDS011;71510;50.558;7.258;2023-08-21T13:03:45;9.30;;;5.92;;
82000;SDS011;71510;50.558;7.258;2023-08-21T13:06:13;14.20;;;5.65;;
82000;SDS011;71510;50.558;7.258;2023-08-21T13:08:40;10.13;;;5.00;;
82000;SDS011;71510;50.558;7.258;2023-08-21T13:11:08;9.83;;;5.22;;
82000;SDS011;71510;50.558;7.258;2023-08-21T13:13:36;16.02;;;5.45;;
82000;SDS011;71510;50.558;7.258;2023-08-21T13:16:03;103.53;;;14.18;;
82000;SDS011;71510;50.558;7.258;2023-08-21T13:18:31;10.15;;;5.78;;
82000;SDS011;71510;50.558;7.258;2023-08-21T13:20:58;7.05;;;5.55;;
82000;SDS011;71510;50.558;7.258;2023-08-21T13:23:25;12.47;;;5.90;;
82000;SDS011;71510;50.558;7.258;2023-08-21T13:25:53;6.30;;;5.65;;
82000;SDS011;71510;50.558;7.258;2023-08-21T13:28:20;12.85;;;6.10;;
82000;SDS011;71510;50.558;7.258;2023-08-21T13:30:48;7.03;;;5.87;;
82000;SDS011;71510;50.558;7.258;2023-08-21T13:33:15;12.53;;;6.42;;
82000;SDS011;71510;50.558;7.258;2023-08-21T13:35:44;21.57;;;6.20;;
82000;SDS011;71510;50.558;7.258;2023-08-21T13:38:12;10.65;;;5.47;;
82000;SDS011;71510;50.558;7.258;2023-08-21T13:40:40;8.68;;;5.75;;
82000;SDS011;71510;50.558;7.258;2023-08-21T13:43:07;7.92;;;5.53;;
82000;SDS011;71510;50.558;7.258;2023-08-21T13:45:36;8.45;;;6.03;;
82000;SDS011;71510;50.558;7.258;2023-08-21T13:48:03;16.65;;;6.30;;
82000;SDS011;71510;50.558;7.258;2023-08-21T13:50:31;10.50;;;6.22;;
82000;SDS011;71510;50.558;7.258;2023-08-21T13:52:58;11.55;;;5.83;;
82000;SDS011;71510;50.558;7.258;2023-08-21T13:55:26;13.10;;;5.83;;
82000;SDS011;71510;50.558;7.258;2023-08-21T13:57:53;8.20;;;5.25;;
82000;SDS011;71510;50.558;7.258;2023-08-21T14:00:20;75.70;;;11.35;;
82000;SDS011;71510;50.558;7.258;2023-08-21T14:02:48;16.35;;;6.83;;
82000;SDS011;71510;50.558;7.258;2023-08-21T14:05:15;13.25;;;5.95;;
82000;SDS011;71510;50.558;7.258;2023-08-21T14:07:44;77.32;;;12.78;;
82000;SDS011;71510;50.558;7.258;2023-08-21T14:10:11;17.92;;;5.85;;
82000;SDS011;71510;50.558;7.258;2023-08-21T14:12:40;17.90;;;6.00;;
82000;SDS011;71510;50.558;7.258;2023-08-21T14:15:07;17.92;;;5.10;;
82000;SDS011;71510;50.558;7.258;2023-08-21T14:17:35;47.80;;;8.45;;
82000;SDS011;71510;50.558;7.258;2023-08-21T14:20:02;6.42;;;5.75;;
82000;SDS011;71510;50.558;7.258;2023-08-21T14:22:30;9.13;;;5.33;;
82000;SDS011;71510;50.558;7.258;2023-08-21T14:24:58;11.73;;;6.10;;
82000;SDS011;71510;50.558;7.258;2023-08-21T14:27:25;7.37;;;5.20;;
82000;SDS011;71510;50.558;7.258;2023-08-21T14:29:52;27.35;;;5.72;;
82000;SDS011;71510;50.558;7.258;2023-08-21T14:32:20;8.50;;;5.55;;
82000;SDS011;71510;50.558;7.258;2023-08-21T14:34:47;9.85;;;5.33;;
82000;SDS011;71510;50.558;7.258;2023-08-21T14:37:14;7.30;;;4.87;;
82000;SDS011;71510;50.558;7.258;2023-08-21T14:39:42;11.20;;;5.40;;
82000;SDS011;71510;50.558;7.258;2023-08-21T14:42:10;7.85;;;4.83;;
82000;SDS011;71510;50.558;7.258;2023-08-21T14:44:38;9.78;;;5.22;;
82000;SDS011;71510;50.558;7.258;2023-08-21T14:47:05;5.72;;;4.65;;
82000;SDS011;71510;50.558;7.258;2023-08-21T14:49:32;9.08;;;5.72;;